sensor_id;sensor_type;location;lat;lon;timestamp;temperature;humidity
13488;DHT22;6816;48.506;9.050;2024-02-14T00:01:22;3.40;99.40
13488;DHT22;6816;48.506;9.050;2024-02-14T00:04:24;3.30;99.40
13488;DHT22;6816;48.506;9.050;2024-02-14T00:07:24;3.30;99.30
13488;DHT22;6816;48.506;9.050;2024-02-14T00:10:28;3.30;99.60
13488;DHT22;6816;48.506;9.050;2024-02-14T00:13:29;3.00;99.20
13488;DHT22;6816;48.506;9.050;2024-02-14T00:16:30;3.30;99.20
13488;DHT22;6816;48.506;9.050;2024-02-14T00:19:31;3.20;99.30
13488;DHT22;6816;48.506;9.050;2024-02-14T00:22:32;3.20;99.20
13488;DHT22;6816;48.506;9.050;2024-02-14T00:25:32;3.20;99.30
13488;DHT22;6816;48.506;9.050;2024-02-14T00:28:33;3.10;99.60
13488;DHT22;6816;48.506;9.050;2024-02-14T00:31:34;3.10;99.30
13488;DHT22;6816;48.506;9.050;2024-02-14T00:34:34;3.10;99.40
13488;DHT22;6816;48.506;9.050;2024-02-14T00:37:35;3.10;99.60
13488;DHT22;6816;48.506;9.050;2024-02-14T00:40:35;3.00;99.70
13488;DHT22;6816;48.506;9.050;2024-02-14T00:43:37;3.00;99.90
13488;DHT22;6816;48.506;9.050;2024-02-14T00:46:37;3.10;99.90
13488;DHT22;6816;48.506;9.050;2024-02-14T00:49:38;3.10;99.90
13488;DHT22;6816;48.506;9.050;2024-02-14T00:52:39;3.10;99.90
13488;DHT22;6816;48.506;9.050;2024-02-14T00:55:40;3.20;99.90
13488;DHT22;6816;48.506;9.050;2024-02-14T00:58:41;3.20;99.90
13488;DHT22;6816;48.506;9.050;2024-02-14T01:01:41;3.30;99.90
13488;DHT22;6816;48.506;9.050;2024-02-14T01:04:42;3.40;99.90
13488;DHT22;6816;48.506;9.050;2024-02-14T01:07:42;3.40;99.90
13488;DHT22;6816;48.506;9.050;2024-02-14T01:10:43;3.50;99.90
13488;DHT22;6816;48.506;9.050;2024-02-14T01:13:44;3.60;99.90
13488;DHT22;6816;48.506;9.050;2024-02-14T01:16:45;3.60;99.90
13488;DHT22;6816;48.506;9.050;2024-02-14T01:19:46;3.70;99.90
13488;DHT22;6816;48.506;9.050;2024-02-14T01:22:46;3.80;99.90
13488;DHT22;6816;48.506;9.050;2024-02-14T01:25:47;3.80;99.90
13488;DHT22;6816;48.506;9.050;2024-02-14T01:28:47;3.80;99.90
13488;DHT22;6816;48.506;9.050;2024-02-14T01:31:48;3.90;99.90
13488;DHT22;6816;48.506;9.050;2024-02-14T01:34:50;3.90;99.90
13488;DHT22;6816;48.506;9.050;2024-02-14T01:37:51;4.00;99.90
13488;DHT22;6816;48.506;9.050;2024-02-14T01:40:52;4.00;99.90
13488;DHT22;6816;48.506;9.050;2024-02-14T01:43:53;4.10;99.90
13488;DHT22;6816;48.506;9.050;2024-02-14T01:46:54;4.10;99.90
13488;DHT22;6816;48.506;9.050;2024-02-14T01:49:55;4.10;99.90
13488;DHT22;6816;48.506;9.050;2024-02-14T01:52:57;4.20;99.90
13488;DHT22;6816;48.506;9.050;2024-02-14T01:55:59;4.20;99.90
13488;DHT22;6816;48.506;9.050;2024-02-14T01:59:00;4.20;99.90
13488;DHT22;6816;48.506;9.050;2024-02-14T02:02:01;4.30;99.90
13488;DHT22;6816;48.506;9.050;2024-02-14T02:05:02;4.30;99.90
13488;DHT22;6816;48.506;9.050;2024-02-14T02:08:03;4.30;99.90
13488;DHT22;6816;48.506;9.050;2024-02-14T02:11:04;4.30;99.90
13488;DHT22;6816;48.506;9.050;2024-02-14T02:14:06;4.40;99.90
13488;DHT22;6816;48.506;9.050;2024-02-14T02:17:07;4.40;99.90
13488;DHT22;6816;48.506;9.050;2024-02-14T02:20:10;4.40;99.90
13488;DHT22;6816;48.506;9.050;2024-02-14T02:23:11;4.40;99.90
13488;DHT22;6816;48.506;9.050;2024-02-14T02:26:15;4.40;99.90
13488;DHT22;6816;48.506;9.050;2024-02-14T02:29:16;4.50;99.90
13488;DHT22;6816;48.506;9.050;2024-02-14T02:32:16;4.50;99.90
13488;DHT22;6816;48.506;9.050;2024-02-14T02:35:18;4.50;99.90
13488;DHT22;6816;48.506;9.050;2024-02-14T02:38:21;4.50;99.90
13488;DHT22;6816;48.506;9.050;2024-02-14T02:41:23;4.50;99.90
13488;DHT22;6816;48.506;9.050;2024-02-14T02:44:24;4.50;99.90
13488;DHT22;6816;48.506;9.050;2024-02-14T02:47:25;4.70;99.90
13488;DHT22;6816;48.506;9.050;2024-02-14T02:50:26;4.50;99.90
13488;DHT22;6816;48.506;9.050;2024-02-14T02:53:26;4.50;99.90
13488;DHT22;6816;48.506;9.050;2024-02-14T02:56:27;4.50;99.90
13488;DHT22;6816;48.506;9.050;2024-02-14T02:59:28;4.50;99.90
13488;DHT22;6816;48.506;9.050;2024-02-14T03:02:30;4.60;99.90
13488;DHT22;6816;48.506;9.050;2024-02-14T03:05:31;4.50;99.90
13488;DHT22;6816;48.506;9.050;2024-02-14T03:08:34;4.50;99.90
13488;DHT22;6816;48.506;9.050;2024-02-14T03:11:35;4.60;99.90
13488;DHT22;6816;48.506;9.050;2024-02-14T03:14:37;4.60;99.90
13488;DHT22;6816;48.506;9.050;2024-02-14T03:17:39;4.60;99.90
13488;DHT22;6816;48.506;9.050;2024-02-14T03:20:40;4.60;99.90
13488;DHT22;6816;48.506;9.050;2024-02-14T03:23:40;4.60;99.90
13488;DHT22;6816;48.506;9.050;2024-02-14T03:26:41;4.60;99.90
13488;DHT22;6816;48.506;9.050;2024-02-14T03:29:42;4.50;99.90
13488;DHT22;6816;48.506;9.050;2024-02-14T03:32:44;4.50;99.90
13488;DHT22;6816;48.506;9.050;2024-02-14T03:35:45;4.50;99.90
13488;DHT22;6816;48.506;9.050;2024-02-14T03:38:46;4.50;99.90
13488;DHT22;6816;48.506;9.050;2024-02-14T03:41:47;4.50;99.90
13488;DHT22;6816;48.506;9.050;2024-02-14T03:44:48;4.40;99.90
13488;DHT22;6816;48.506;9.050;2024-02-14T03:47:49;4.40;99.90
13488;DHT22;6816;48.506;9.050;2024-02-14T03:50:49;4.30;99.90
13488;DHT22;6816;48.506;9.050;2024-02-14T03:53:50;4.30;99.90
13488;DHT22;6816;48.506;9.050;2024-02-14T03:56:51;4.20;99.90
13488;DHT22;6816;48.506;9.050;2024-02-14T03:59:52;4.20;99.90
13488;DHT22;6816;48.506;9.050;2024-02-14T04:02:53;4.10;99.90
13488;DHT22;6816;48.506;9.050;2024-02-14T04:05:59;4.10;99.90
13488;DHT22;6816;48.506;9.050;2024-02-14T04:09:00;4.10;99.90
13488;DHT22;6816;48.506;9.050;2024-02-14T04:12:01;4.10;99.90
13488;DHT22;6816;48.506;9.050;2024-02-14T04:15:01;4.10;99.90
13488;DHT22;6816;48.506;9.050;2024-02-14T04:18:02;4.10;99.90
13488;DHT22;6816;48.506;9.050;2024-02-14T04:21:09;4.10;99.90
13488;DHT22;6816;48.506;9.050;2024-02-14T04:24:10;4.10;99.90
13488;DHT22;6816;48.506;9.050;2024-02-14T04:27:10;4.10;99.90
13488;DHT22;6816;48.506;9.050;2024-02-14T04:30:11;4.00;99.90
13488;DHT22;6816;48.506;9.050;2024-02-14T04:33:12;4.00;99.90
13488;DHT22;6816;48.506;9.050;2024-02-14T04:36:12;4.00;99.90
13488;DHT22;6816;48.506;9.050;2024-02-14T04:39:13;4.00;99.90
13488;DHT22;6816;48.506;9.050;2024-02-14T04:42:14;3.90;99.90
13488;DHT22;6816;48.506;9.050;2024-02-14T04:45:14;3.90;99.90
13488;DHT22;6816;48.506;9.050;2024-02-14T04:48:15;3.90;99.90
13488;DHT22;6816;48.506;9.050;2024-02-14T04:51:16;3.90;99.90
13488;DHT22;6816;48.506;9.050;2024-02-14T04:54:17;3.80;99.90
13488;DHT22;6816;48.506;9.050;2024-02-14T04:57:17;3.80;99.90
13488;DHT22;6816;48.506;9.050;2024-02-14T05:00:20;3.70;99.90
13488;DHT22;6816;48.506;9.050;2024-02-14T05:03:21;3.70;99.90
13488;DHT22;6816;48.506;9.050;2024-02-14T05:06:21;3.70;99.90
13488;DHT22;6816;48.506;9.050;2024-02-14T05:09:22;3.70;99.90
13488;DHT22;6816;48.506;9.050;2024-02-14T05:12:23;3.60;99.90
13488;DHT22;6816;48.506;9.050;2024-02-14T05:15:24;3.60;99.90
13488;DHT22;6816;48.506;9.050;2024-02-14T05:18:24;3.60;99.90
13488;DHT22;6816;48.506;9.050;2024-02-14T05:21:25;3.60;99.90
13488;DHT22;6816;48.506;9.050;2024-02-14T05:24:25;3.80;99.90
13488;DHT22;6816;48.506;9.050;2024-02-14T05:27:27;3.60;99.90
13488;DHT22;6816;48.506;9.050;2024-02-14T05:30:28;3.60;99.90
13488;DHT22;6816;48.506;9.050;2024-02-14T05:33:29;3.70;99.90
13488;DHT22;6816;48.506;9.050;2024-02-14T05:36:29;3.70;99.90
13488;DHT22;6816;48.506;9.050;2024-02-14T05:39:30;3.70;99.90
13488;DHT22;6816;48.506;9.050;2024-02-14T05:42:30;3.80;99.90
13488;DHT22;6816;48.506;9.050;2024-02-14T05:45:31;3.90;99.90
13488;DHT22;6816;48.506;9.050;2024-02-14T05:48:31;3.90;99.90
13488;DHT22;6816;48.506;9.050;2024-02-14T05:51:32;3.90;99.90
13488;DHT22;6816;48.506;9.050;2024-02-14T05:54:33;4.00;99.90
13488;DHT22;6816;48.506;9.050;2024-02-14T05:57:33;4.00;99.90
13488;DHT22;6816;48.506;9.050;2024-02-14T06:00:34;4.10;99.90
13488;DHT22;6816;48.506;9.050;2024-02-14T06:03:34;4.10;99.90
13488;DHT22;6816;48.506;9.050;2024-02-14T06:06:35;4.10;99.90
13488;DHT22;6816;48.506;9.050;2024-02-14T06:09:35;4.30;99.90
13488;DHT22;6816;48.506;9.050;2024-02-14T06:12:36;4.20;99.90
13488;DHT22;6816;48.506;9.050;2024-02-14T06:15:37;4.30;99.90
13488;DHT22;6816;48.506;9.050;2024-02-14T06:18:37;4.30;99.90
13488;DHT22;6816;48.506;9.050;2024-02-14T06:21:39;4.30;99.90
13488;DHT22;6816;48.506;9.050;2024-02-14T06:24:40;4.40;99.90
13488;DHT22;6816;48.506;9.050;2024-02-14T06:27:41;4.50;99.90
13488;DHT22;6816;48.506;9.050;2024-02-14T06:30:42;4.50;99.90
13488;DHT22;6816;48.506;9.050;2024-02-14T06:33:43;4.50;99.90
13488;DHT22;6816;48.506;9.050;2024-02-14T06:36:44;4.70;99.90
13488;DHT22;6816;48.506;9.050;2024-02-14T06:39:44;4.60;99.90
13488;DHT22;6816;48.506;9.050;2024-02-14T06:42:45;4.70;99.90
13488;DHT22;6816;48.506;9.050;2024-02-14T06:45:46;4.70;99.90
13488;DHT22;6816;48.506;9.050;2024-02-14T06:48:46;4.80;99.90
13488;DHT22;6816;48.506;9.050;2024-02-14T06:51:47;4.80;99.90
13488;DHT22;6816;48.506;9.050;2024-02-14T06:54:47;4.80;99.90
13488;DHT22;6816;48.506;9.050;2024-02-14T06:57:48;4.80;99.90
13488;DHT22;6816;48.506;9.050;2024-02-14T07:00:49;4.80;99.90
13488;DHT22;6816;48.506;9.050;2024-02-14T07:03:50;4.80;99.90
13488;DHT22;6816;48.506;9.050;2024-02-14T07:06:53;4.80;99.90
13488;DHT22;6816;48.506;9.050;2024-02-14T07:09:53;4.80;99.90
13488;DHT22;6816;48.506;9.050;2024-02-14T07:12:54;4.80;99.90
13488;DHT22;6816;48.506;9.050;2024-02-14T07:15:54;4.80;99.90
13488;DHT22;6816;48.506;9.050;2024-02-14T07:18:55;4.80;99.90
13488;DHT22;6816;48.506;9.050;2024-02-14T07:21:55;4.80;99.90
13488;DHT22;6816;48.506;9.050;2024-02-14T07:24:57;5.00;99.90
13488;DHT22;6816;48.506;9.050;2024-02-14T07:27:57;4.90;99.90
13488;DHT22;6816;48.506;9.050;2024-02-14T07:30:58;4.90;99.90
13488;DHT22;6816;48.506;9.050;2024-02-14T07:33:59;5.00;99.90
13488;DHT22;6816;48.506;9.050;2024-02-14T07:36:59;5.00;99.90
13488;DHT22;6816;48.506;9.050;2024-02-14T07:40:00;5.10;99.90
13488;DHT22;6816;48.506;9.050;2024-02-14T07:43:01;5.10;99.90
13488;DHT22;6816;48.506;9.050;2024-02-14T07:46:02;5.30;99.90
13488;DHT22;6816;48.506;9.050;2024-02-14T07:49:06;5.20;99.90
13488;DHT22;6816;48.506;9.050;2024-02-14T07:52:06;5.40;99.90
13488;DHT22;6816;48.506;9.050;2024-02-14T07:55:07;5.40;99.90
13488;DHT22;6816;48.506;9.050;2024-02-14T07:58:08;5.50;99.90
13488;DHT22;6816;48.506;9.050;2024-02-14T08:01:08;5.70;99.90
13488;DHT22;6816;48.506;9.050;2024-02-14T08:04:09;5.80;99.90
13488;DHT22;6816;48.506;9.050;2024-02-14T08:07:10;5.90;99.90
13488;DHT22;6816;48.506;9.050;2024-02-14T08:10:10;6.00;99.90
13488;DHT22;6816;48.506;9.050;2024-02-14T08:13:11;6.10;99.90
13488;DHT22;6816;48.506;9.050;2024-02-14T08:16:15;6.50;99.90
13488;DHT22;6816;48.506;9.050;2024-02-14T08:19:16;6.40;99.90
13488;DHT22;6816;48.506;9.050;2024-02-14T08:22:17;6.50;99.90
13488;DHT22;6816;48.506;9.050;2024-02-14T08:25:17;6.70;99.90
13488;DHT22;6816;48.506;9.050;2024-02-14T08:28:18;6.90;99.90
13488;DHT22;6816;48.506;9.050;2024-02-14T08:31:19;6.90;99.90
13488;DHT22;6816;48.506;9.050;2024-02-14T08:34:20;7.10;99.90
13488;DHT22;6816;48.506;9.050;2024-02-14T08:37:21;7.20;99.90
13488;DHT22;6816;48.506;9.050;2024-02-14T08:40:21;7.30;99.90
13488;DHT22;6816;48.506;9.050;2024-02-14T08:43:22;7.40;99.90
13488;DHT22;6816;48.506;9.050;2024-02-14T08:46:25;7.50;99.90
13488;DHT22;6816;48.506;9.050;2024-02-14T08:49:26;7.70;99.90
13488;DHT22;6816;48.506;9.050;2024-02-14T08:52:26;7.90;99.90
13488;DHT22;6816;48.506;9.050;2024-02-14T08:55:27;8.00;99.90
13488;DHT22;6816;48.506;9.050;2024-02-14T08:58:28;8.20;99.90
13488;DHT22;6816;48.506;9.050;2024-02-14T09:01:29;8.30;99.90
13488;DHT22;6816;48.506;9.050;2024-02-14T09:04:30;8.50;99.90
13488;DHT22;6816;48.506;9.050;2024-02-14T09:07:31;8.60;99.90
13488;DHT22;6816;48.506;9.050;2024-02-14T09:10:34;8.70;99.90
13488;DHT22;6816;48.506;9.050;2024-02-14T09:13:34;9.00;99.90
13488;DHT22;6816;48.506;9.050;2024-02-14T09:16:35;9.00;99.90
13488;DHT22;6816;48.506;9.050;2024-02-14T09:19:35;9.10;99.90
13488;DHT22;6816;48.506;9.050;2024-02-14T09:22:37;9.20;99.90
13488;DHT22;6816;48.506;9.050;2024-02-14T09:25:37;9.30;99.90
13488;DHT22;6816;48.506;9.050;2024-02-14T09:28:40;9.40;99.90
13488;DHT22;6816;48.506;9.050;2024-02-14T09:31:41;9.50;99.90
13488;DHT22;6816;48.506;9.050;2024-02-14T09:34:41;9.70;99.90
13488;DHT22;6816;48.506;9.050;2024-02-14T09:37:42;9.80;99.90
13488;DHT22;6816;48.506;9.050;2024-02-14T09:40:43;9.90;99.90
13488;DHT22;6816;48.506;9.050;2024-02-14T09:43:44;10.00;99.90
13488;DHT22;6816;48.506;9.050;2024-02-14T09:46:45;10.20;99.90
13488;DHT22;6816;48.506;9.050;2024-02-14T09:49:46;10.30;99.90
13488;DHT22;6816;48.506;9.050;2024-02-14T09:52:48;10.40;99.90
13488;DHT22;6816;48.506;9.050;2024-02-14T09:55:50;10.60;99.90
13488;DHT22;6816;48.506;9.050;2024-02-14T09:58:50;10.70;99.90
13488;DHT22;6816;48.506;9.050;2024-02-14T10:01:56;10.90;99.90
13488;DHT22;6816;48.506;9.050;2024-02-14T10:04:57;11.10;99.90
13488;DHT22;6816;48.506;9.050;2024-02-14T10:07:57;11.20;99.90
13488;DHT22;6816;48.506;9.050;2024-02-14T10:10:58;11.30;99.90
13488;DHT22;6816;48.506;9.050;2024-02-14T10:13:59;11.60;99.90
13488;DHT22;6816;48.506;9.050;2024-02-14T10:17:04;11.70;99.90
13488;DHT22;6816;48.506;9.050;2024-02-14T10:20:05;11.80;99.90
13488;DHT22;6816;48.506;9.050;2024-02-14T10:23:07;12.00;99.90
13488;DHT22;6816;48.506;9.050;2024-02-14T10:26:14;12.20;99.90
13488;DHT22;6816;48.506;9.050;2024-02-14T10:29:15;12.40;99.90
13488;DHT22;6816;48.506;9.050;2024-02-14T10:32:16;12.70;99.90
13488;DHT22;6816;48.506;9.050;2024-02-14T10:35:17;12.80;99.90
13488;DHT22;6816;48.506;9.050;2024-02-14T10:38:22;13.10;99.90
13488;DHT22;6816;48.506;9.050;2024-02-14T10:41:23;13.40;99.90
13488;DHT22;6816;48.506;9.050;2024-02-14T10:44:25;13.50;99.90
13488;DHT22;6816;48.506;9.050;2024-02-14T10:47:34;13.70;99.90
13488;DHT22;6816;48.506;9.050;2024-02-14T10:50:40;14.00;99.90
13488;DHT22;6816;48.506;9.050;2024-02-14T10:53:44;14.30;99.90
13488;DHT22;6816;48.506;9.050;2024-02-14T10:56:49;14.50;99.90
13488;DHT22;6816;48.506;9.050;2024-02-14T10:59:53;14.80;99.90
13488;DHT22;6816;48.506;9.050;2024-02-14T11:02:54;15.10;99.90
13488;DHT22;6816;48.506;9.050;2024-02-14T11:05:55;15.50;99.90
13488;DHT22;6816;48.506;9.050;2024-02-14T11:09:03;15.80;99.90
13488;DHT22;6816;48.506;9.050;2024-02-14T11:12:08;16.10;99.90
13488;DHT22;6816;48.506;9.050;2024-02-14T11:15:19;16.20;99.90
13488;DHT22;6816;48.506;9.050;2024-02-14T11:18:30;16.40;99.90
13488;DHT22;6816;48.506;9.050;2024-02-14T11:21:31;16.50;99.90
13488;DHT22;6816;48.506;9.050;2024-02-14T11:24:32;16.60;99.90
13488;DHT22;6816;48.506;9.050;2024-02-14T11:27:35;16.80;99.90
13488;DHT22;6816;48.506;9.050;2024-02-14T11:30:35;16.90;99.90
13488;DHT22;6816;48.506;9.050;2024-02-14T11:33:36;17.00;99.90
13488;DHT22;6816;48.506;9.050;2024-02-14T11:36:37;17.10;99.90
13488;DHT22;6816;48.506;9.050;2024-02-14T11:39:38;17.10;99.90
13488;DHT22;6816;48.506;9.050;2024-02-14T11:42:39;17.20;99.90
13488;DHT22;6816;48.506;9.050;2024-02-14T11:45:41;17.20;99.90
13488;DHT22;6816;48.506;9.050;2024-02-14T11:48:42;17.10;99.90
13488;DHT22;6816;48.506;9.050;2024-02-14T11:51:44;17.10;99.90
13488;DHT22;6816;48.506;9.050;2024-02-14T11:54:48;17.10;99.90
13488;DHT22;6816;48.506;9.050;2024-02-14T11:57:51;17.10;99.90
13488;DHT22;6816;48.506;9.050;2024-02-14T12:00:53;17.10;99.90
13488;DHT22;6816;48.506;9.050;2024-02-14T12:03:54;17.20;99.90
13488;DHT22;6816;48.506;9.050;2024-02-14T12:06:54;17.20;99.90
13488;DHT22;6816;48.506;9.050;2024-02-14T12:09:55;17.30;99.90
13488;DHT22;6816;48.506;9.050;2024-02-14T12:12:56;17.40;99.90
13488;DHT22;6816;48.506;9.050;2024-02-14T12:15:56;17.40;99.90
13488;DHT22;6816;48.506;9.050;2024-02-14T12:22:10;17.70;99.90
13488;DHT22;6816;48.506;9.050;2024-02-14T12:25:17;17.80;99.90
13488;DHT22;6816;48.506;9.050;2024-02-14T12:28:19;18.00;99.90
13488;DHT22;6816;48.506;9.050;2024-02-14T12:31:23;18.30;99.90
13488;DHT22;6816;48.506;9.050;2024-02-14T12:34:24;18.40;99.90
13488;DHT22;6816;48.506;9.050;2024-02-14T12:37:24;18.60;99.90
13488;DHT22;6816;48.506;9.050;2024-02-14T12:40:25;18.80;99.90
13488;DHT22;6816;48.506;9.050;2024-02-14T12:43:26;18.90;99.90
13488;DHT22;6816;48.506;9.050;2024-02-14T12:46:27;19.10;99.90
13488;DHT22;6816;48.506;9.050;2024-02-14T12:49:28;19.20;99.90
13488;DHT22;6816;48.506;9.050;2024-02-14T12:52:29;19.20;99.90
13488;DHT22;6816;48.506;9.050;2024-02-14T12:55:29;19.30;99.90
13488;DHT22;6816;48.506;9.050;2024-02-14T12:58:31;19.20;99.90
13488;DHT22;6816;48.506;9.050;2024-02-14T13:01:32;19.20;99.90
13488;DHT22;6816;48.506;9.050;2024-02-14T13:04:32;19.20;99.90
13488;DHT22;6816;48.506;9.050;2024-02-14T13:07:34;19.20;99.90
13488;DHT22;6816;48.506;9.050;2024-02-14T13:10:35;19.10;99.90
13488;DHT22;6816;48.506;9.050;2024-02-14T13:13:36;19.10;99.90
13488;DHT22;6816;48.506;9.050;2024-02-14T13:16:36;19.00;99.90
13488;DHT22;6816;48.506;9.050;2024-02-14T13:19:37;18.90;99.90
13488;DHT22;6816;48.506;9.050;2024-02-14T13:22:39;18.80;99.90
13488;DHT22;6816;48.506;9.050;2024-02-14T13:25:40;18.70;99.90
13488;DHT22;6816;48.506;9.050;2024-02-14T13:28:40;18.60;99.90
13488;DHT22;6816;48.506;9.050;2024-02-14T13:31:41;18.60;99.90
13488;DHT22;6816;48.506;9.050;2024-02-14T13:34:42;18.50;99.90
13488;DHT22;6816;48.506;9.050;2024-02-14T13:37:45;18.40;99.90
13488;DHT22;6816;48.506;9.050;2024-02-14T13:40:46;18.30;99.90
13488;DHT22;6816;48.506;9.050;2024-02-14T13:43:47;18.30;99.90
13488;DHT22;6816;48.506;9.050;2024-02-14T13:46:48;18.20;99.90
13488;DHT22;6816;48.506;9.050;2024-02-14T13:49:50;18.20;99.90
13488;DHT22;6816;48.506;9.050;2024-02-14T13:52:52;18.10;99.90
13488;DHT22;6816;48.506;9.050;2024-02-14T13:55:54;18.00;99.90
13488;DHT22;6816;48.506;9.050;2024-02-14T13:58:56;18.00;99.90
13488;DHT22;6816;48.506;9.050;2024-02-14T14:01:56;17.90;99.90
13488;DHT22;6816;48.506;9.050;2024-02-14T14:04:57;17.80;99.90
13488;DHT22;6816;48.506;9.050;2024-02-14T14:07:57;17.70;99.90
13488;DHT22;6816;48.506;9.050;2024-02-14T14:10:59;17.70;99.90
13488;DHT22;6816;48.506;9.050;2024-02-14T14:14:00;17.70;99.90
13488;DHT22;6816;48.506;9.050;2024-02-14T14:17:01;17.60;99.90
13488;DHT22;6816;48.506;9.050;2024-02-14T14:20:02;17.60;99.90
13488;DHT22;6816;48.506;9.050;2024-02-14T14:23:04;17.60;99.90
13488;DHT22;6816;48.506;9.050;2024-02-14T14:26:05;17.60;99.90
13488;DHT22;6816;48.506;9.050;2024-02-14T14:29:06;17.60;99.90
13488;DHT22;6816;48.506;9.050;2024-02-14T14:32:07;17.60;99.90
13488;DHT22;6816;48.506;9.050;2024-02-14T14:35:08;17.60;99.90
13488;DHT22;6816;48.506;9.050;2024-02-14T14:38:10;17.60;99.90
13488;DHT22;6816;48.506;9.050;2024-02-14T14:41:11;17.60;99.90
13488;DHT22;6816;48.506;9.050;2024-02-14T14:44:12;17.60;99.90
13488;DHT22;6816;48.506;9.050;2024-02-14T14:47:12;17.60;99.90
13488;DHT22;6816;48.506;9.050;2024-02-14T14:50:14;17.50;99.90
13488;DHT22;6816;48.506;9.050;2024-02-14T14:53:16;17.50;99.90
13488;DHT22;6816;48.506;9.050;2024-02-14T14:56:17;17.50;99.90
13488;DHT22;6816;48.506;9.050;2024-02-14T14:59:18;17.50;99.90
13488;DHT22;6816;48.506;9.050;2024-02-14T15:02:19;17.50;99.90
13488;DHT22;6816;48.506;9.050;2024-02-14T15:05:20;17.40;99.90
13488;DHT22;6816;48.506;9.050;2024-02-14T15:08:20;17.40;99.90
13488;DHT22;6816;48.506;9.050;2024-02-14T15:11:25;17.40;99.90
13488;DHT22;6816;48.506;9.050;2024-02-14T15:14:26;17.40;99.90
13488;DHT22;6816;48.506;9.050;2024-02-14T15:17:27;17.40;99.90
13488;DHT22;6816;48.506;9.050;2024-02-14T15:20:28;17.40;99.90
13488;DHT22;6816;48.506;9.050;2024-02-14T15:23:30;17.30;99.90
13488;DHT22;6816;48.506;9.050;2024-02-14T15:26:31;17.30;99.90
13488;DHT22;6816;48.506;9.050;2024-02-14T15:29:39;17.30;99.90
13488;DHT22;6816;48.506;9.050;2024-02-14T15:32:58;17.20;99.90
13488;DHT22;6816;48.506;9.050;2024-02-14T15:36:17;17.10;99.90
13488;DHT22;6816;48.506;9.050;2024-02-14T15:39:18;17.00;99.90
13488;DHT22;6816;48.506;9.050;2024-02-14T15:42:19;16.90;99.80
13488;DHT22;6816;48.506;9.050;2024-02-14T15:45:20;16.80;99.70
13488;DHT22;6816;48.506;9.050;2024-02-14T15:48:20;16.70;99.70
13488;DHT22;6816;48.506;9.050;2024-02-14T15:51:21;16.60;99.80
13488;DHT22;6816;48.506;9.050;2024-02-14T15:54:23;16.50;99.90
13488;DHT22;6816;48.506;9.050;2024-02-14T15:57:24;16.50;99.90
13488;DHT22;6816;48.506;9.050;2024-02-14T16:00:26;16.40;99.90
13488;DHT22;6816;48.506;9.050;2024-02-14T16:03:27;16.30;99.90
13488;DHT22;6816;48.506;9.050;2024-02-14T16:06:28;16.30;99.90
13488;DHT22;6816;48.506;9.050;2024-02-14T16:09:29;16.20;99.90
13488;DHT22;6816;48.506;9.050;2024-02-14T16:12:30;16.20;99.90
13488;DHT22;6816;48.506;9.050;2024-02-14T16:15:31;16.10;99.90
13488;DHT22;6816;48.506;9.050;2024-02-14T16:18:31;16.10;99.90
13488;DHT22;6816;48.506;9.050;2024-02-14T16:21:32;16.00;99.90
13488;DHT22;6816;48.506;9.050;2024-02-14T16:24:33;16.00;99.90
13488;DHT22;6816;48.506;9.050;2024-02-14T16:27:38;15.90;99.90
13488;DHT22;6816;48.506;9.050;2024-02-14T16:30:39;15.90;99.90
13488;DHT22;6816;48.506;9.050;2024-02-14T16:33:40;15.80;99.90
13488;DHT22;6816;48.506;9.050;2024-02-14T16:36:40;15.70;99.90
13488;DHT22;6816;48.506;9.050;2024-02-14T16:39:41;15.70;99.90
13488;DHT22;6816;48.506;9.050;2024-02-14T16:42:41;15.60;99.90
13488;DHT22;6816;48.506;9.050;2024-02-14T16:45:42;15.50;99.90
13488;DHT22;6816;48.506;9.050;2024-02-14T16:48:42;15.50;99.90
13488;DHT22;6816;48.506;9.050;2024-02-14T16:51:43;15.40;99.90
13488;DHT22;6816;48.506;9.050;2024-02-14T16:54:44;15.40;99.90
13488;DHT22;6816;48.506;9.050;2024-02-14T16:57:44;15.30;99.90
13488;DHT22;6816;48.506;9.050;2024-02-14T17:00:45;15.20;99.90
13488;DHT22;6816;48.506;9.050;2024-02-14T17:03:45;15.10;99.90
13488;DHT22;6816;48.506;9.050;2024-02-14T17:06:46;15.10;99.90
13488;DHT22;6816;48.506;9.050;2024-02-14T17:09:46;15.00;99.90
13488;DHT22;6816;48.506;9.050;2024-02-14T17:12:47;14.90;99.90
13488;DHT22;6816;48.506;9.050;2024-02-14T17:15:48;14.90;99.90
13488;DHT22;6816;48.506;9.050;2024-02-14T17:18:49;14.80;99.90
13488;DHT22;6816;48.506;9.050;2024-02-14T17:21:50;14.80;99.90
13488;DHT22;6816;48.506;9.050;2024-02-14T17:24:50;14.70;99.90
13488;DHT22;6816;48.506;9.050;2024-02-14T17:27:55;14.70;99.90
13488;DHT22;6816;48.506;9.050;2024-02-14T17:30:57;14.60;99.90
13488;DHT22;6816;48.506;9.050;2024-02-14T17:33:57;14.60;99.90
13488;DHT22;6816;48.506;9.050;2024-02-14T17:36:58;14.50;99.90
13488;DHT22;6816;48.506;9.050;2024-02-14T17:39:58;14.50;99.90
13488;DHT22;6816;48.506;9.050;2024-02-14T17:42:59;14.50;99.90
13488;DHT22;6816;48.506;9.050;2024-02-14T17:46:00;14.50;99.90
13488;DHT22;6816;48.506;9.050;2024-02-14T17:49:01;14.40;99.90
13488;DHT22;6816;48.506;9.050;2024-02-14T17:52:03;14.40;99.90
13488;DHT22;6816;48.506;9.050;2024-02-14T17:55:07;14.30;99.90
13488;DHT22;6816;48.506;9.050;2024-02-14T17:58:08;14.30;99.90
13488;DHT22;6816;48.506;9.050;2024-02-14T18:01:09;14.20;99.90
13488;DHT22;6816;48.506;9.050;2024-02-14T18:04:10;14.30;99.90
13488;DHT22;6816;48.506;9.050;2024-02-14T18:07:10;14.10;99.90
13488;DHT22;6816;48.506;9.050;2024-02-14T18:10:11;14.20;99.90
13488;DHT22;6816;48.506;9.050;2024-02-14T18:13:12;14.10;99.90
13488;DHT22;6816;48.506;9.050;2024-02-14T18:16:13;14.00;99.90
13488;DHT22;6816;48.506;9.050;2024-02-14T18:19:15;14.00;99.90
13488;DHT22;6816;48.506;9.050;2024-02-14T18:22:16;14.00;99.90
13488;DHT22;6816;48.506;9.050;2024-02-14T18:25:17;13.90;99.90
13488;DHT22;6816;48.506;9.050;2024-02-14T18:28:17;13.90;99.90
13488;DHT22;6816;48.506;9.050;2024-02-14T18:31:18;13.90;99.90
13488;DHT22;6816;48.506;9.050;2024-02-14T18:34:18;13.80;99.90
13488;DHT22;6816;48.506;9.050;2024-02-14T18:37:19;13.80;99.90
13488;DHT22;6816;48.506;9.050;2024-02-14T18:40:19;13.80;99.90
13488;DHT22;6816;48.506;9.050;2024-02-14T18:43:20;13.70;99.90
13488;DHT22;6816;48.506;9.050;2024-02-14T18:46:21;13.60;99.90
13488;DHT22;6816;48.506;9.050;2024-02-14T18:49:24;13.60;99.90
13488;DHT22;6816;48.506;9.050;2024-02-14T18:52:24;13.70;99.90
13488;DHT22;6816;48.506;9.050;2024-02-14T18:55:25;13.50;99.90
13488;DHT22;6816;48.506;9.050;2024-02-14T18:58:26;13.50;99.90
13488;DHT22;6816;48.506;9.050;2024-02-14T19:01:27;13.50;99.90
13488;DHT22;6816;48.506;9.050;2024-02-14T19:04:28;13.40;99.90
13488;DHT22;6816;48.506;9.050;2024-02-14T19:07:28;13.50;99.90
13488;DHT22;6816;48.506;9.050;2024-02-14T19:10:29;13.40;99.90
13488;DHT22;6816;48.506;9.050;2024-02-14T19:13:29;13.30;99.90
13488;DHT22;6816;48.506;9.050;2024-02-14T19:16:30;13.40;99.90
13488;DHT22;6816;48.506;9.050;2024-02-14T19:19:30;13.30;99.90
13488;DHT22;6816;48.506;9.050;2024-02-14T19:22:35;13.30;99.90
13488;DHT22;6816;48.506;9.050;2024-02-14T19:25:37;13.20;99.90
13488;DHT22;6816;48.506;9.050;2024-02-14T19:28:37;13.20;99.90
13488;DHT22;6816;48.506;9.050;2024-02-14T19:31:38;13.20;99.90
13488;DHT22;6816;48.506;9.050;2024-02-14T19:34:39;13.10;99.90
13488;DHT22;6816;48.506;9.050;2024-02-14T19:37:39;13.10;99.90